Terminal Aerodrome Forecast
Issued by NWS

Home | Current Version | Previous Version | Text Only | Print | Product List | Glossary On
Versions: 1 2 3 4 5 6 7 8 9 10 11 12 13 14 15 16 17 18 19 20 21 22 23 24 25 26 27 28 29
000
FTUS45 KPSR 140000 AAA
TAFIWA
TAF AMD
KIWA 140017Z 1400/1424 22010KT P6SM VCTS SCT080CB BKN120 BKN200
      TEMPO 1400/1401 VRB15G25KT P6SM -TSRA BKN080CB OVC150
     FM140500 19010KT P6SM BKN100 BKN180
      AMD LTD TO CLD VIS AND WIND 1403/1413=

USA.gov is the U.S. government's official web portal to all federal, state and local government web resources and services.